sensor_id;sensor_type;location;lat;lon;timestamp;P1;durP1;ratioP1;P2;durP2;ratioP2
70132;SDS011;57495;49.922;7.966;2024-01-11T00:01:18;22.00;;;10.27;;
70132;SDS011;57495;49.922;7.966;2024-01-11T00:03:19;24.63;;;11.13;;
70132;SDS011;57495;49.922;7.966;2024-01-11T00:05:21;23.25;;;10.88;;
70132;SDS011;57495;49.922;7.966;2024-01-11T00:07:22;21.30;;;9.52;;
70132;SDS011;57495;49.922;7.966;2024-01-11T00:09:24;24.13;;;9.67;;
70132;SDS011;57495;49.922;7.966;2024-01-11T00:11:25;20.15;;;9.52;;
70132;SDS011;57495;49.922;7.966;2024-01-11T00:13:26;24.23;;;10.50;;
70132;SDS011;57495;49.922;7.966;2024-01-11T00:15:28;22.42;;;10.02;;
70132;SDS011;57495;49.922;7.966;2024-01-11T00:17:28;20.97;;;9.80;;
70132;SDS011;57495;49.922;7.966;2024-01-11T00:19:31;23.08;;;10.30;;
70132;SDS011;57495;49.922;7.966;2024-01-11T00:21:32;25.23;;;10.50;;
70132;SDS011;57495;49.922;7.966;2024-01-11T00:23:33;23.37;;;10.40;;
70132;SDS011;57495;49.922;7.966;2024-01-11T00:25:34;24.08;;;10.15;;
70132;SDS011;57495;49.922;7.966;2024-01-11T00:27:36;20.08;;;9.10;;
70132;SDS011;57495;49.922;7.966;2024-01-11T00:29:37;25.77;;;9.95;;
70132;SDS011;57495;49.922;7.966;2024-01-11T00:31:38;24.40;;;10.40;;
70132;SDS011;57495;49.922;7.966;2024-01-11T00:33:40;28.38;;;11.02;;
70132;SDS011;57495;49.922;7.966;2024-01-11T00:35:43;23.45;;;9.73;;
70132;SDS011;57495;49.922;7.966;2024-01-11T00:37:44;27.57;;;11.17;;
70132;SDS011;57495;49.922;7.966;2024-01-11T00:39:45;23.02;;;10.07;;
70132;SDS011;57495;49.922;7.966;2024-01-11T00:41:46;25.10;;;10.73;;
70132;SDS011;57495;49.922;7.966;2024-01-11T00:43:47;26.27;;;10.53;;
70132;SDS011;57495;49.922;7.966;2024-01-11T00:45:48;29.05;;;10.95;;
70132;SDS011;57495;49.922;7.966;2024-01-11T00:47:48;28.00;;;12.33;;
70132;SDS011;57495;49.922;7.966;2024-01-11T00:49:50;26.17;;;11.07;;
70132;SDS011;57495;49.922;7.966;2024-01-11T00:51:52;25.20;;;10.53;;
70132;SDS011;57495;49.922;7.966;2024-01-11T00:53:53;24.38;;;10.32;;
70132;SDS011;57495;49.922;7.966;2024-01-11T00:55:55;29.08;;;12.65;;
70132;SDS011;57495;49.922;7.966;2024-01-11T00:57:56;26.73;;;12.00;;
70132;SDS011;57495;49.922;7.966;2024-01-11T00:59:57;27.02;;;11.82;;
70132;SDS011;57495;49.922;7.966;2024-01-11T01:01:59;31.88;;;12.07;;
70132;SDS011;57495;49.922;7.966;2024-01-11T01:04:00;31.58;;;13.13;;
70132;SDS011;57495;49.922;7.966;2024-01-11T01:06:02;35.58;;;13.18;;
70132;SDS011;57495;49.922;7.966;2024-01-11T01:08:05;24.27;;;11.13;;
70132;SDS011;57495;49.922;7.966;2024-01-11T01:10:07;24.90;;;10.43;;
70132;SDS011;57495;49.922;7.966;2024-01-11T01:12:09;24.08;;;11.15;;
70132;SDS011;57495;49.922;7.966;2024-01-11T01:14:10;23.00;;;10.52;;
70132;SDS011;57495;49.922;7.966;2024-01-11T01:16:11;24.23;;;10.27;;
70132;SDS011;57495;49.922;7.966;2024-01-11T01:18:13;24.67;;;10.13;;
70132;SDS011;57495;49.922;7.966;2024-01-11T01:20:14;23.55;;;10.63;;
70132;SDS011;57495;49.922;7.966;2024-01-11T01:22:16;23.23;;;10.75;;
70132;SDS011;57495;49.922;7.966;2024-01-11T01:24:18;29.50;;;12.10;;
70132;SDS011;57495;49.922;7.966;2024-01-11T01:26:19;24.75;;;11.23;;
70132;SDS011;57495;49.922;7.966;2024-01-11T01:28:21;26.73;;;11.77;;
70132;SDS011;57495;49.922;7.966;2024-01-11T01:30:21;25.03;;;12.13;;
70132;SDS011;57495;49.922;7.966;2024-01-11T01:32:23;25.20;;;11.52;;
70132;SDS011;57495;49.922;7.966;2024-01-11T01:34:24;23.33;;;11.20;;
70132;SDS011;57495;49.922;7.966;2024-01-11T01:36:26;25.07;;;10.20;;
70132;SDS011;57495;49.922;7.966;2024-01-11T01:38:27;24.45;;;11.15;;
70132;SDS011;57495;49.922;7.966;2024-01-11T01:40:31;27.75;;;11.27;;
70132;SDS011;57495;49.922;7.966;2024-01-11T01:42:33;27.38;;;11.05;;
70132;SDS011;57495;49.922;7.966;2024-01-11T01:44:33;26.93;;;11.80;;
70132;SDS011;57495;49.922;7.966;2024-01-11T01:46:35;25.30;;;12.13;;
70132;SDS011;57495;49.922;7.966;2024-01-11T01:48:36;23.40;;;11.48;;
70132;SDS011;57495;49.922;7.966;2024-01-11T01:50:38;25.50;;;11.50;;
70132;SDS011;57495;49.922;7.966;2024-01-11T01:52:39;25.53;;;11.63;;
70132;SDS011;57495;49.922;7.966;2024-01-11T01:54:43;22.35;;;11.68;;
70132;SDS011;57495;49.922;7.966;2024-01-11T01:56:46;26.45;;;11.32;;
70132;SDS011;57495;49.922;7.966;2024-01-11T01:58:48;26.05;;;10.93;;
70132;SDS011;57495;49.922;7.966;2024-01-11T02:00:52;25.33;;;10.93;;
70132;SDS011;57495;49.922;7.966;2024-01-11T02:02:54;24.13;;;10.40;;
70132;SDS011;57495;49.922;7.966;2024-01-11T02:04:56;25.83;;;10.85;;
70132;SDS011;57495;49.922;7.966;2024-01-11T02:06:58;25.52;;;11.18;;
70132;SDS011;57495;49.922;7.966;2024-01-11T02:09:00;25.50;;;12.38;;
70132;SDS011;57495;49.922;7.966;2024-01-11T02:11:03;27.90;;;11.73;;
70132;SDS011;57495;49.922;7.966;2024-01-11T02:13:05;30.77;;;11.02;;
70132;SDS011;57495;49.922;7.966;2024-01-11T02:15:07;24.58;;;11.13;;
70132;SDS011;57495;49.922;7.966;2024-01-11T02:17:09;26.65;;;11.80;;
70132;SDS011;57495;49.922;7.966;2024-01-11T02:19:11;25.98;;;11.82;;
70132;SDS011;57495;49.922;7.966;2024-01-11T02:21:14;21.50;;;9.93;;
70132;SDS011;57495;49.922;7.966;2024-01-11T02:23:17;26.52;;;11.32;;
70132;SDS011;57495;49.922;7.966;2024-01-11T02:25:21;24.95;;;11.23;;
70132;SDS011;57495;49.922;7.966;2024-01-11T02:27:22;24.95;;;11.40;;
70132;SDS011;57495;49.922;7.966;2024-01-11T02:29:23;29.73;;;12.07;;
70132;SDS011;57495;49.922;7.966;2024-01-11T02:31:25;25.03;;;11.30;;
70132;SDS011;57495;49.922;7.966;2024-01-11T02:33:26;30.73;;;12.50;;
70132;SDS011;57495;49.922;7.966;2024-01-11T02:35:27;32.50;;;13.30;;
70132;SDS011;57495;49.922;7.966;2024-01-11T02:37:29;32.17;;;13.02;;
70132;SDS011;57495;49.922;7.966;2024-01-11T02:39:32;32.92;;;14.18;;
70132;SDS011;57495;49.922;7.966;2024-01-11T02:41:35;28.80;;;13.32;;
70132;SDS011;57495;49.922;7.966;2024-01-11T02:43:38;27.27;;;11.93;;
70132;SDS011;57495;49.922;7.966;2024-01-11T02:45:39;28.00;;;11.33;;
70132;SDS011;57495;49.922;7.966;2024-01-11T02:47:41;29.58;;;12.00;;
70132;SDS011;57495;49.922;7.966;2024-01-11T02:49:42;29.60;;;11.93;;
70132;SDS011;57495;49.922;7.966;2024-01-11T02:51:43;29.43;;;11.83;;
70132;SDS011;57495;49.922;7.966;2024-01-11T02:53:44;28.38;;;12.10;;
70132;SDS011;57495;49.922;7.966;2024-01-11T02:55:44;27.63;;;11.13;;
70132;SDS011;57495;49.922;7.966;2024-01-11T02:57:47;30.30;;;12.48;;
70132;SDS011;57495;49.922;7.966;2024-01-11T02:59:49;28.85;;;11.60;;
70132;SDS011;57495;49.922;7.966;2024-01-11T03:01:50;27.33;;;11.43;;
70132;SDS011;57495;49.922;7.966;2024-01-11T03:03:51;28.33;;;11.40;;
70132;SDS011;57495;49.922;7.966;2024-01-11T03:05:53;23.77;;;10.60;;
70132;SDS011;57495;49.922;7.966;2024-01-11T03:07:54;27.85;;;10.82;;
70132;SDS011;57495;49.922;7.966;2024-01-11T03:09:55;25.37;;;10.67;;
70132;SDS011;57495;49.922;7.966;2024-01-11T03:11:56;22.00;;;9.55;;
70132;SDS011;57495;49.922;7.966;2024-01-11T03:13:59;25.33;;;10.07;;
70132;SDS011;57495;49.922;7.966;2024-01-11T03:16:01;25.95;;;11.13;;
70132;SDS011;57495;49.922;7.966;2024-01-11T03:18:02;23.13;;;10.97;;
70132;SDS011;57495;49.922;7.966;2024-01-11T03:20:04;24.60;;;10.25;;
70132;SDS011;57495;49.922;7.966;2024-01-11T03:22:06;24.88;;;11.05;;
70132;SDS011;57495;49.922;7.966;2024-01-11T03:24:08;25.88;;;11.10;;
70132;SDS011;57495;49.922;7.966;2024-01-11T03:26:13;30.03;;;11.80;;
70132;SDS011;57495;49.922;7.966;2024-01-11T03:28:14;24.75;;;11.18;;
70132;SDS011;57495;49.922;7.966;2024-01-11T03:30:16;23.15;;;10.63;;
70132;SDS011;57495;49.922;7.966;2024-01-11T03:32:18;24.25;;;10.35;;
70132;SDS011;57495;49.922;7.966;2024-01-11T03:34:19;23.40;;;10.52;;
70132;SDS011;57495;49.922;7.966;2024-01-11T03:36:22;28.08;;;11.70;;
70132;SDS011;57495;49.922;7.966;2024-01-11T03:38:24;25.80;;;11.23;;
70132;SDS011;57495;49.922;7.966;2024-01-11T03:40:25;25.57;;;10.80;;
70132;SDS011;57495;49.922;7.966;2024-01-11T03:42:27;27.40;;;12.05;;
70132;SDS011;57495;49.922;7.966;2024-01-11T03:44:28;22.15;;;10.73;;
70132;SDS011;57495;49.922;7.966;2024-01-11T03:46:32;23.75;;;10.88;;
70132;SDS011;57495;49.922;7.966;2024-01-11T03:48:33;28.05;;;11.27;;
70132;SDS011;57495;49.922;7.966;2024-01-11T03:50:35;26.97;;;11.20;;
70132;SDS011;57495;49.922;7.966;2024-01-11T03:52:38;29.20;;;11.05;;
70132;SDS011;57495;49.922;7.966;2024-01-11T03:54:40;28.20;;;11.38;;
70132;SDS011;57495;49.922;7.966;2024-01-11T03:56:41;28.00;;;12.95;;
70132;SDS011;57495;49.922;7.966;2024-01-11T03:58:43;25.63;;;10.45;;
70132;SDS011;57495;49.922;7.966;2024-01-11T04:00:44;25.07;;;10.90;;
70132;SDS011;57495;49.922;7.966;2024-01-11T04:02:47;27.35;;;11.13;;
70132;SDS011;57495;49.922;7.966;2024-01-11T04:04:49;26.55;;;11.57;;
70132;SDS011;57495;49.922;7.966;2024-01-11T04:06:51;26.23;;;11.45;;
70132;SDS011;57495;49.922;7.966;2024-01-11T04:08:51;29.40;;;12.10;;
70132;SDS011;57495;49.922;7.966;2024-01-11T04:10:53;30.90;;;12.57;;
70132;SDS011;57495;49.922;7.966;2024-01-11T04:12:54;28.63;;;11.73;;
70132;SDS011;57495;49.922;7.966;2024-01-11T04:14:56;32.30;;;11.95;;
70132;SDS011;57495;49.922;7.966;2024-01-11T04:16:57;31.60;;;12.43;;
70132;SDS011;57495;49.922;7.966;2024-01-11T04:19:00;28.10;;;12.40;;
70132;SDS011;57495;49.922;7.966;2024-01-11T04:21:04;27.50;;;11.33;;
70132;SDS011;57495;49.922;7.966;2024-01-11T04:23:05;28.45;;;10.82;;
70132;SDS011;57495;49.922;7.966;2024-01-11T04:25:07;28.50;;;11.57;;
70132;SDS011;57495;49.922;7.966;2024-01-11T04:27:09;26.42;;;10.88;;
70132;SDS011;57495;49.922;7.966;2024-01-11T04:29:11;26.85;;;11.13;;
70132;SDS011;57495;49.922;7.966;2024-01-11T04:31:12;28.70;;;12.23;;
70132;SDS011;57495;49.922;7.966;2024-01-11T04:33:13;28.25;;;12.00;;
70132;SDS011;57495;49.922;7.966;2024-01-11T04:35:16;25.03;;;11.97;;
70132;SDS011;57495;49.922;7.966;2024-01-11T04:37:17;28.73;;;11.32;;
70132;SDS011;57495;49.922;7.966;2024-01-11T04:39:19;28.98;;;11.77;;
70132;SDS011;57495;49.922;7.966;2024-01-11T04:41:21;28.58;;;11.82;;
70132;SDS011;57495;49.922;7.966;2024-01-11T04:43:22;26.45;;;12.05;;
70132;SDS011;57495;49.922;7.966;2024-01-11T04:45:23;27.90;;;11.17;;
70132;SDS011;57495;49.922;7.966;2024-01-11T04:47:24;29.88;;;11.45;;
70132;SDS011;57495;49.922;7.966;2024-01-11T04:49:25;32.07;;;12.03;;
70132;SDS011;57495;49.922;7.966;2024-01-11T04:51:27;30.27;;;11.10;;
70132;SDS011;57495;49.922;7.966;2024-01-11T04:53:29;26.83;;;10.43;;
70132;SDS011;57495;49.922;7.966;2024-01-11T04:55:30;27.00;;;10.17;;
70132;SDS011;57495;49.922;7.966;2024-01-11T04:57:31;28.08;;;11.82;;
70132;SDS011;57495;49.922;7.966;2024-01-11T04:59:33;24.15;;;11.10;;
70132;SDS011;57495;49.922;7.966;2024-01-11T05:01:34;28.10;;;11.82;;
70132;SDS011;57495;49.922;7.966;2024-01-11T05:03:36;27.90;;;11.38;;
70132;SDS011;57495;49.922;7.966;2024-01-11T05:05:37;29.40;;;12.60;;
70132;SDS011;57495;49.922;7.966;2024-01-11T05:07:40;26.98;;;11.90;;
70132;SDS011;57495;49.922;7.966;2024-01-11T05:09:41;27.08;;;11.38;;
70132;SDS011;57495;49.922;7.966;2024-01-11T05:11:42;23.90;;;10.68;;
70132;SDS011;57495;49.922;7.966;2024-01-11T05:13:44;31.20;;;11.32;;
70132;SDS011;57495;49.922;7.966;2024-01-11T05:15:47;28.73;;;11.47;;
70132;SDS011;57495;49.922;7.966;2024-01-11T05:17:49;22.08;;;10.52;;
70132;SDS011;57495;49.922;7.966;2024-01-11T05:19:50;28.65;;;11.93;;
70132;SDS011;57495;49.922;7.966;2024-01-11T05:21:51;27.93;;;11.77;;
70132;SDS011;57495;49.922;7.966;2024-01-11T05:23:53;26.92;;;11.02;;
70132;SDS011;57495;49.922;7.966;2024-01-11T05:25:54;29.63;;;12.10;;
70132;SDS011;57495;49.922;7.966;2024-01-11T05:27:55;29.35;;;11.82;;
70132;SDS011;57495;49.922;7.966;2024-01-11T05:29:57;26.63;;;12.10;;
70132;SDS011;57495;49.922;7.966;2024-01-11T05:31:58;27.20;;;11.13;;
70132;SDS011;57495;49.922;7.966;2024-01-11T05:34:00;30.30;;;12.27;;
70132;SDS011;57495;49.922;7.966;2024-01-11T05:36:01;25.77;;;11.00;;
70132;SDS011;57495;49.922;7.966;2024-01-11T05:38:03;27.75;;;11.27;;
70132;SDS011;57495;49.922;7.966;2024-01-11T05:40:07;29.43;;;11.83;;
70132;SDS011;57495;49.922;7.966;2024-01-11T05:42:09;26.88;;;11.27;;
70132;SDS011;57495;49.922;7.966;2024-01-11T05:44:10;28.05;;;11.88;;
70132;SDS011;57495;49.922;7.966;2024-01-11T05:46:12;28.73;;;10.88;;
70132;SDS011;57495;49.922;7.966;2024-01-11T05:48:14;25.55;;;11.43;;
70132;SDS011;57495;49.922;7.966;2024-01-11T05:50:16;29.53;;;12.23;;
70132;SDS011;57495;49.922;7.966;2024-01-11T05:52:17;32.25;;;11.88;;
70132;SDS011;57495;49.922;7.966;2024-01-11T05:54:19;31.90;;;13.32;;
70132;SDS011;57495;49.922;7.966;2024-01-11T05:56:22;29.98;;;11.35;;
70132;SDS011;57495;49.922;7.966;2024-01-11T05:58:24;30.42;;;13.02;;
70132;SDS011;57495;49.922;7.966;2024-01-11T06:00:24;26.87;;;12.27;;
70132;SDS011;57495;49.922;7.966;2024-01-11T06:02:26;27.27;;;11.40;;
70132;SDS011;57495;49.922;7.966;2024-01-11T06:04:27;29.80;;;11.60;;
70132;SDS011;57495;49.922;7.966;2024-01-11T06:06:28;34.17;;;12.48;;
70132;SDS011;57495;49.922;7.966;2024-01-11T06:08:30;28.42;;;11.20;;
70132;SDS011;57495;49.922;7.966;2024-01-11T06:10:33;26.83;;;10.73;;
70132;SDS011;57495;49.922;7.966;2024-01-11T06:12:35;32.25;;;12.73;;
70132;SDS011;57495;49.922;7.966;2024-01-11T06:14:37;31.10;;;12.73;;
70132;SDS011;57495;49.922;7.966;2024-01-11T06:16:40;33.38;;;12.35;;
70132;SDS011;57495;49.922;7.966;2024-01-11T06:18:42;30.30;;;12.15;;
70132;SDS011;57495;49.922;7.966;2024-01-11T06:20:47;32.65;;;12.18;;
70132;SDS011;57495;49.922;7.966;2024-01-11T06:22:49;34.15;;;13.52;;
70132;SDS011;57495;49.922;7.966;2024-01-11T06:24:50;33.13;;;14.93;;
70132;SDS011;57495;49.922;7.966;2024-01-11T06:26:52;29.73;;;12.98;;
70132;SDS011;57495;49.922;7.966;2024-01-11T06:28:53;31.80;;;13.97;;
70132;SDS011;57495;49.922;7.966;2024-01-11T06:30:55;32.53;;;12.77;;
70132;SDS011;57495;49.922;7.966;2024-01-11T06:32:56;34.30;;;13.60;;
70132;SDS011;57495;49.922;7.966;2024-01-11T06:34:57;29.60;;;12.43;;
70132;SDS011;57495;49.922;7.966;2024-01-11T06:36:58;28.70;;;13.25;;
70132;SDS011;57495;49.922;7.966;2024-01-11T06:38:59;31.90;;;13.07;;
70132;SDS011;57495;49.922;7.966;2024-01-11T06:41:01;30.55;;;13.05;;
70132;SDS011;57495;49.922;7.966;2024-01-11T06:43:02;32.47;;;12.57;;
70132;SDS011;57495;49.922;7.966;2024-01-11T06:45:05;33.22;;;14.43;;
70132;SDS011;57495;49.922;7.966;2024-01-11T06:47:08;31.98;;;14.20;;
70132;SDS011;57495;49.922;7.966;2024-01-11T06:49:09;33.80;;;14.33;;
70132;SDS011;57495;49.922;7.966;2024-01-11T06:51:12;31.60;;;14.00;;
70132;SDS011;57495;49.922;7.966;2024-01-11T06:53:15;33.90;;;14.07;;
70132;SDS011;57495;49.922;7.966;2024-01-11T06:55:16;35.00;;;13.70;;
70132;SDS011;57495;49.922;7.966;2024-01-11T06:57:17;31.70;;;13.48;;
70132;SDS011;57495;49.922;7.966;2024-01-11T06:59:18;29.00;;;12.07;;
70132;SDS011;57495;49.922;7.966;2024-01-11T07:01:21;34.90;;;13.05;;
70132;SDS011;57495;49.922;7.966;2024-01-11T07:03:23;29.17;;;12.80;;
70132;SDS011;57495;49.922;7.966;2024-01-11T07:05:25;31.70;;;12.63;;
70132;SDS011;57495;49.922;7.966;2024-01-11T07:07:27;28.00;;;13.07;;
70132;SDS011;57495;49.922;7.966;2024-01-11T07:09:28;28.43;;;12.43;;
70132;SDS011;57495;49.922;7.966;2024-01-11T07:11:30;36.95;;;15.40;;
70132;SDS011;57495;49.922;7.966;2024-01-11T07:13:32;36.78;;;15.82;;
70132;SDS011;57495;49.922;7.966;2024-01-11T07:15:33;33.92;;;15.30;;
70132;SDS011;57495;49.922;7.966;2024-01-11T07:17:36;30.88;;;13.57;;
70132;SDS011;57495;49.922;7.966;2024-01-11T07:19:37;30.40;;;13.37;;
70132;SDS011;57495;49.922;7.966;2024-01-11T07:21:39;31.40;;;13.75;;
70132;SDS011;57495;49.922;7.966;2024-01-11T07:23:40;31.48;;;12.80;;
70132;SDS011;57495;49.922;7.966;2024-01-11T07:25:42;30.80;;;12.95;;
70132;SDS011;57495;49.922;7.966;2024-01-11T07:27:43;33.35;;;13.38;;
70132;SDS011;57495;49.922;7.966;2024-01-11T07:29:44;32.33;;;13.73;;
70132;SDS011;57495;49.922;7.966;2024-01-11T07:31:46;29.23;;;12.73;;
70132;SDS011;57495;49.922;7.966;2024-01-11T07:33:49;33.08;;;12.70;;
70132;SDS011;57495;49.922;7.966;2024-01-11T07:35:50;29.58;;;13.10;;
70132;SDS011;57495;49.922;7.966;2024-01-11T07:37:51;29.45;;;13.40;;
70132;SDS011;57495;49.922;7.966;2024-01-11T07:39:53;34.73;;;13.40;;
70132;SDS011;57495;49.922;7.966;2024-01-11T07:41:54;27.45;;;13.73;;
70132;SDS011;57495;49.922;7.966;2024-01-11T07:43:55;33.65;;;13.85;;
70132;SDS011;57495;49.922;7.966;2024-01-11T07:45:58;34.83;;;13.93;;
70132;SDS011;57495;49.922;7.966;2024-01-11T07:48:00;30.40;;;12.68;;
70132;SDS011;57495;49.922;7.966;2024-01-11T07:50:05;32.27;;;13.23;;
70132;SDS011;57495;49.922;7.966;2024-01-11T07:52:07;30.95;;;12.40;;
70132;SDS011;57495;49.922;7.966;2024-01-11T07:54:09;29.83;;;13.20;;
70132;SDS011;57495;49.922;7.966;2024-01-11T07:56:11;33.58;;;13.35;;
70132;SDS011;57495;49.922;7.966;2024-01-11T07:58:12;33.10;;;13.20;;
70132;SDS011;57495;49.922;7.966;2024-01-11T08:00:13;32.90;;;13.60;;
70132;SDS011;57495;49.922;7.966;2024-01-11T08:02:15;31.45;;;13.18;;
70132;SDS011;57495;49.922;7.966;2024-01-11T08:04:16;32.47;;;12.98;;
70132;SDS011;57495;49.922;7.966;2024-01-11T08:06:19;28.17;;;11.93;;
70132;SDS011;57495;49.922;7.966;2024-01-11T08:08:21;30.88;;;12.23;;
70132;SDS011;57495;49.922;7.966;2024-01-11T08:10:22;32.67;;;13.40;;
70132;SDS011;57495;49.922;7.966;2024-01-11T08:12:24;27.20;;;12.20;;
70132;SDS011;57495;49.922;7.966;2024-01-11T08:14:24;29.90;;;12.82;;
70132;SDS011;57495;49.922;7.966;2024-01-11T08:16:26;30.47;;;12.07;;
70132;SDS011;57495;49.922;7.966;2024-01-11T08:18:26;31.05;;;12.27;;
70132;SDS011;57495;49.922;7.966;2024-01-11T08:20:28;31.67;;;14.27;;
70132;SDS011;57495;49.922;7.966;2024-01-11T08:22:30;34.78;;;15.82;;
70132;SDS011;57495;49.922;7.966;2024-01-11T08:24:34;38.53;;;16.30;;
70132;SDS011;57495;49.922;7.966;2024-01-11T08:26:36;38.47;;;15.57;;
70132;SDS011;57495;49.922;7.966;2024-01-11T08:28:37;33.13;;;14.35;;
70132;SDS011;57495;49.922;7.966;2024-01-11T08:30:39;37.60;;;14.80;;
70132;SDS011;57495;49.922;7.966;2024-01-11T08:32:42;31.23;;;13.30;;
70132;SDS011;57495;49.922;7.966;2024-01-11T08:34:43;32.53;;;12.88;;
70132;SDS011;57495;49.922;7.966;2024-01-11T08:36:44;30.90;;;13.83;;
70132;SDS011;57495;49.922;7.966;2024-01-11T08:38:47;38.45;;;14.23;;
70132;SDS011;57495;49.922;7.966;2024-01-11T08:40:49;33.10;;;13.50;;
70132;SDS011;57495;49.922;7.966;2024-01-11T08:42:51;30.95;;;12.57;;
70132;SDS011;57495;49.922;7.966;2024-01-11T08:44:52;30.40;;;13.53;;
70132;SDS011;57495;49.922;7.966;2024-01-11T08:46:55;33.60;;;13.23;;
70132;SDS011;57495;49.922;7.966;2024-01-11T08:48:59;31.67;;;13.15;;
70132;SDS011;57495;49.922;7.966;2024-01-11T08:51:03;32.67;;;12.82;;
70132;SDS011;57495;49.922;7.966;2024-01-11T08:53:05;28.83;;;12.55;;
70132;SDS011;57495;49.922;7.966;2024-01-11T08:55:08;31.63;;;13.47;;
70132;SDS011;57495;49.922;7.966;2024-01-11T08:57:09;35.72;;;13.52;;
70132;SDS011;57495;49.922;7.966;2024-01-11T08:59:11;34.67;;;14.27;;
70132;SDS011;57495;49.922;7.966;2024-01-11T09:01:11;32.60;;;14.77;;
70132;SDS011;57495;49.922;7.966;2024-01-11T09:03:13;28.88;;;12.90;;
70132;SDS011;57495;49.922;7.966;2024-01-11T09:05:16;35.95;;;14.65;;
70132;SDS011;57495;49.922;7.966;2024-01-11T09:07:18;39.42;;;17.70;;
70132;SDS011;57495;49.922;7.966;2024-01-11T09:09:19;38.95;;;16.58;;
70132;SDS011;57495;49.922;7.966;2024-01-11T09:11:21;35.03;;;15.47;;
70132;SDS011;57495;49.922;7.966;2024-01-11T09:13:22;48.78;;;19.40;;
70132;SDS011;57495;49.922;7.966;2024-01-11T09:15:24;44.07;;;17.10;;
70132;SDS011;57495;49.922;7.966;2024-01-11T09:17:24;38.25;;;15.68;;
70132;SDS011;57495;49.922;7.966;2024-01-11T09:19:25;32.97;;;15.00;;
70132;SDS011;57495;49.922;7.966;2024-01-11T09:21:27;39.03;;;16.48;;
70132;SDS011;57495;49.922;7.966;2024-01-11T09:23:28;39.40;;;17.25;;
70132;SDS011;57495;49.922;7.966;2024-01-11T09:25:30;38.05;;;16.40;;
70132;SDS011;57495;49.922;7.966;2024-01-11T09:27:33;40.13;;;15.48;;
70132;SDS011;57495;49.922;7.966;2024-01-11T09:29:34;39.00;;;16.00;;
70132;SDS011;57495;49.922;7.966;2024-01-11T09:31:36;30.55;;;14.27;;
70132;SDS011;57495;49.922;7.966;2024-01-11T09:33:38;32.72;;;15.20;;
70132;SDS011;57495;49.922;7.966;2024-01-11T09:35:40;35.53;;;14.98;;
70132;SDS011;57495;49.922;7.966;2024-01-11T09:37:42;33.42;;;16.00;;
70132;SDS011;57495;49.922;7.966;2024-01-11T09:39:46;37.03;;;15.73;;
70132;SDS011;57495;49.922;7.966;2024-01-11T09:41:49;36.25;;;16.23;;
70132;SDS011;57495;49.922;7.966;2024-01-11T09:43:55;37.67;;;16.85;;
70132;SDS011;57495;49.922;7.966;2024-01-11T09:46:00;39.85;;;17.05;;
70132;SDS011;57495;49.922;7.966;2024-01-11T09:48:03;36.42;;;15.90;;
70132;SDS011;57495;49.922;7.966;2024-01-11T09:50:07;30.87;;;14.17;;
70132;SDS011;57495;49.922;7.966;2024-01-11T09:52:10;34.30;;;15.07;;
70132;SDS011;57495;49.922;7.966;2024-01-11T09:54:13;35.20;;;15.65;;
70132;SDS011;57495;49.922;7.966;2024-01-11T09:56:16;33.53;;;15.38;;
70132;SDS011;57495;49.922;7.966;2024-01-11T09:58:19;34.15;;;15.77;;
70132;SDS011;57495;49.922;7.966;2024-01-11T10:00:23;38.47;;;16.60;;
70132;SDS011;57495;49.922;7.966;2024-01-11T10:02:26;33.05;;;15.65;;
70132;SDS011;57495;49.922;7.966;2024-01-11T10:04:27;32.63;;;15.43;;
70132;SDS011;57495;49.922;7.966;2024-01-11T10:06:29;33.90;;;16.48;;
70132;SDS011;57495;49.922;7.966;2024-01-11T10:08:35;31.88;;;15.77;;
70132;SDS011;57495;49.922;7.966;2024-01-11T10:10:36;37.00;;;16.27;;
70132;SDS011;57495;49.922;7.966;2024-01-11T10:12:38;34.97;;;16.02;;
70132;SDS011;57495;49.922;7.966;2024-01-11T10:14:40;34.70;;;15.57;;
70132;SDS011;57495;49.922;7.966;2024-01-11T10:16:43;48.97;;;22.48;;
70132;SDS011;57495;49.922;7.966;2024-01-11T10:18:45;56.00;;;25.48;;
70132;SDS011;57495;49.922;7.966;2024-01-11T10:20:47;48.03;;;19.42;;
70132;SDS011;57495;49.922;7.966;2024-01-11T10:22:49;35.20;;;17.38;;
70132;SDS011;57495;49.922;7.966;2024-01-11T10:24:51;34.90;;;16.23;;
70132;SDS011;57495;49.922;7.966;2024-01-11T10:27:09;32.97;;;15.68;;
70132;SDS011;57495;49.922;7.966;2024-01-11T10:29:10;44.30;;;16.90;;
70132;SDS011;57495;49.922;7.966;2024-01-11T10:31:13;35.40;;;16.95;;
70132;SDS011;57495;49.922;7.966;2024-01-11T10:33:16;34.60;;;16.65;;
70132;SDS011;57495;49.922;7.966;2024-01-11T10:35:20;36.22;;;17.05;;
70132;SDS011;57495;49.922;7.966;2024-01-11T10:37:22;38.63;;;17.33;;
70132;SDS011;57495;49.922;7.966;2024-01-11T10:39:25;34.95;;;16.13;;
70132;SDS011;57495;49.922;7.966;2024-01-11T10:41:27;36.17;;;17.27;;
70132;SDS011;57495;49.922;7.966;2024-01-11T10:43:35;35.20;;;16.80;;
70132;SDS011;57495;49.922;7.966;2024-01-11T10:45:38;36.00;;;16.67;;
70132;SDS011;57495;49.922;7.966;2024-01-11T10:47:39;35.28;;;16.88;;
70132;SDS011;57495;49.922;7.966;2024-01-11T10:49:48;34.65;;;16.10;;
70132;SDS011;57495;49.922;7.966;2024-01-11T10:51:55;35.25;;;16.77;;
70132;SDS011;57495;49.922;7.966;2024-01-11T10:54:00;32.30;;;15.13;;
70132;SDS011;57495;49.922;7.966;2024-01-11T10:56:02;41.70;;;18.85;;
70132;SDS011;57495;49.922;7.966;2024-01-11T10:58:06;41.30;;;17.60;;
70132;SDS011;57495;49.922;7.966;2024-01-11T11:00:09;35.78;;;17.00;;
70132;SDS011;57495;49.922;7.966;2024-01-11T11:02:12;34.80;;;16.00;;
70132;SDS011;57495;49.922;7.966;2024-01-11T11:04:15;34.15;;;16.52;;
70132;SDS011;57495;49.922;7.966;2024-01-11T11:06:20;32.55;;;15.23;;
70132;SDS011;57495;49.922;7.966;2024-01-11T11:08:23;36.60;;;15.15;;
70132;SDS011;57495;49.922;7.966;2024-01-11T11:10:24;37.45;;;16.13;;
70132;SDS011;57495;49.922;7.966;2024-01-11T11:12:27;33.97;;;16.95;;
70132;SDS011;57495;49.922;7.966;2024-01-11T11:14:29;34.33;;;16.98;;
70132;SDS011;57495;49.922;7.966;2024-01-11T11:16:33;32.72;;;16.75;;
70132;SDS011;57495;49.922;7.966;2024-01-11T11:18:34;32.97;;;15.05;;
70132;SDS011;57495;49.922;7.966;2024-01-11T11:20:38;32.67;;;16.45;;
70132;SDS011;57495;49.922;7.966;2024-01-11T11:22:43;34.05;;;16.52;;
70132;SDS011;57495;49.922;7.966;2024-01-11T11:24:54;35.20;;;16.30;;
70132;SDS011;57495;49.922;7.966;2024-01-11T11:27:05;32.60;;;16.65;;
70132;SDS011;57495;49.922;7.966;2024-01-11T11:29:07;33.65;;;17.48;;
70132;SDS011;57495;49.922;7.966;2024-01-11T11:31:10;35.90;;;17.33;;
70132;SDS011;57495;49.922;7.966;2024-01-11T11:33:16;31.48;;;15.77;;
70132;SDS011;57495;49.922;7.966;2024-01-11T11:35:19;29.42;;;13.90;;
70132;SDS011;57495;49.922;7.966;2024-01-11T11:37:22;33.37;;;15.13;;
70132;SDS011;57495;49.922;7.966;2024-01-11T11:39:25;30.63;;;14.95;;
70132;SDS011;57495;49.922;7.966;2024-01-11T11:41:30;28.65;;;14.82;;
70132;SDS011;57495;49.922;7.966;2024-01-11T11:43:32;33.65;;;15.63;;
70132;SDS011;57495;49.922;7.966;2024-01-11T11:45:34;30.65;;;15.10;;
70132;SDS011;57495;49.922;7.966;2024-01-11T11:47:36;29.13;;;14.23;;
70132;SDS011;57495;49.922;7.966;2024-01-11T11:49:52;30.63;;;15.27;;
70132;SDS011;57495;49.922;7.966;2024-01-11T11:51:58;30.08;;;15.20;;
70132;SDS011;57495;49.922;7.966;2024-01-11T11:54:00;31.77;;;15.38;;